Fort Myers, FL

8:53 PM EDT on July 24, 2016 (GMT -0400)
Page | | Change Station

Elev 16 ft 26.58 °N, 81.86 °W | Updated 49 minutes ago

Overcast
Overcast
80 °F
Feels Like 84 °F
N
13
Wind Variable Wind from WSW

Today
High -- | Low -- °F
--% Chance of Precip.
Yesterday
High -- | Low -- °F
Precip. -- in
Pressure 30.05 in
Visibility 10.0 miles
Clouds Few 2700 ft
Mostly Cloudy 4700 ft
Overcast 8500 ft
Heat Index 84 °F
Dew Point 71 °F
Humidity 74%
Rainfall 2.19 in
Snow Depth Not available.
6:48 AM 8:19 PM
Waning Gibbous, 71% visible
SPECI KFMY 250004Z 25011KT 10SM FEW027 BKN047 OVC085 27/22 A3005 RMK AO2 WSHFT 2344 T02670217
Pressure 30.05 in
Visibility 10.0 miles
Clouds Few 2700 ft
Mostly Cloudy 4700 ft
Overcast 8500 ft
Heat Index 84 °F
Dew Point 71 °F
Humidity 74%
Rainfall 2.19 in
Snow Depth Not available.
6:48 AM 8:19 PM
Waning Gibbous, 71% visible
SPECI KFMY 250004Z 25011KT 10SM FEW027 BKN047 OVC085 27/22 A3005 RMK AO2 WSHFT 2344 T02670217

10-Day Weather Forecast

Almanac

Astronomy

Jul. 24, 2016 Rise Set
Actual Time
Civil Twilight
Nautical Twilight
Astronomical Twilight
Moon
Length of Visible Light
Length of Day
Tomorrow will be .
, % of the Moon is Illuminated

Today's Extremes

State Highs State Lows

Community

WunderPhotos

Upload Photos

1,927,218 photos uploaded!

WunderBlog® & News

Nearby

Air Quality

  Air Quality AQ Index Pollutant
Not available.

Snow Depth

Station Depth Elevation

Earthquake Activity

City Distance Mag. Time & Date
Minimum magnitude displayed is 2.5.

Coastal Water Temperatures

Place Temperature

Stations

Nearby Weather Stations

Station Location Temp. Windchill Dew Point Humidity Wind Precip. Elev Updated Type
                   

Watches & Warnings

There are currently no watches in effect.